Time;durP1;ratioP1;P1;durP2;ratioP2;P2;SDS_P1;SDS_P2;PMS_P1;PMS_P2;Temp;Humidity;BMP_temperature;BMP_pressure;BME280_temperature;BME280_humidity;BME280_pressure;Samples;Min_cycle;Max_cycle;Signal;HPM_P1;HPM_P2
2021/01/17 00:00:50;;;;;;;8.45;2.10;;;;;;;13.99;44.30;101957.28;5086676;27;20030;-71
2021/01/17 00:03:16;;;;;;;6.00;2.25;;;;;;;14.19;43.74;101957.97;5085097;27;20031;-71
2021/01/17 00:05:43;;;;;;;6.40;2.30;;;;;;;14.27;43.54;101960.78;5115215;27;20160;-70
2021/01/17 00:08:14;;;;;;;6.25;1.90;;;;;;;14.36;43.19;101960.91;5116156;27;20168;-86
2021/01/17 00:10:41;;;;;;;6.00;1.83;;;;;;;14.37;43.13;101948.78;5130807;27;20051;-72
2021/01/17 00:13:07;;;;;;;9.25;2.67;;;;;;;14.49;42.94;101956.50;5126622;27;20027;-70
2021/01/17 00:15:33;;;;;;;6.65;2.30;;;;;;;14.28;43.36;101965.19;5113704;28;20031;-70
2021/01/17 00:17:59;;;;;;;7.82;2.25;;;;;;;14.44;42.96;101969.22;5113974;28;20015;-70
2021/01/17 00:20:26;;;;;;;7.03;2.40;;;;;;;14.26;43.12;101974.84;5113496;28;20493;-82
2021/01/17 00:22:56;;;;;;;10.52;3.28;;;;;;;14.25;43.13;101974.03;5114055;28;20023;-71
2021/01/17 00:25:22;;;;;;;9.90;2.90;;;;;;;14.33;43.03;101973.31;5113529;28;20023;-70
2021/01/17 00:27:52;;;;;;;7.30;1.98;;;;;;;14.27;43.05;101965.47;5113690;28;20028;-72
2021/01/17 00:30:24;;;;;;;5.47;2.00;;;;;;;13.89;43.84;101966.53;5113388;28;20016;-74
2021/01/17 00:32:52;;;;;;;10.13;2.47;;;;;;;13.92;43.58;101965.13;5113365;28;20103;-77
2021/01/17 00:35:18;;;;;;;6.53;2.00;;;;;;;14.14;43.12;101958.91;5113319;28;20386;-70
2021/01/17 00:37:45;;;;;;;10.00;2.72;;;;;;;14.05;43.35;101956.03;5113585;28;20058;-71
2021/01/17 00:40:11;;;;;;;6.38;2.53;;;;;;;13.99;43.34;101962.78;5113303;28;20032;-70
2021/01/17 00:42:43;;;;;;;7.97;2.25;;;;;;;14.11;43.06;101971.28;5113183;28;20031;-70
2021/01/17 00:45:10;;;;;;;5.80;2.10;;;;;;;13.99;43.56;101975.69;5113285;28;20040;-70
2021/01/17 00:47:35;;;;;;;8.30;1.63;;;;;;;14.09;43.21;101975.47;5113179;28;20111;-70
2021/01/17 00:50:01;;;;;;;7.55;1.70;;;;;;;13.94;43.80;101975.78;5113158;28;20094;-75
2021/01/17 00:52:27;;;;;;;7.50;1.95;;;;;;;13.97;43.73;101977.91;5078131;28;20088;-74
2021/01/17 00:54:52;;;;;;;7.85;2.15;;;;;;;14.08;43.15;101979.34;5112894;28;20470;-82
2021/01/17 00:57:18;;;;;;;8.10;2.10;;;;;;;13.75;44.04;101965.72;5113056;28;20524;-70
2021/01/17 00:59:43;;;;;;;5.72;2.20;;;;;;;13.40;44.74;101964.47;5112708;28;20439;-70
2021/01/17 01:02:09;;;;;;;7.25;2.08;;;;;;;13.46;44.63;101962.44;5112918;28;20474;-81
2021/01/17 01:04:35;;;;;;;8.93;2.13;;;;;;;13.61;44.22;101967.66;5113213;28;20140;-71
2021/01/17 01:07:01;;;;;;;5.88;2.45;;;;;;;13.44;44.79;101964.66;5112922;28;20080;-70
2021/01/17 01:09:27;;;;;;;9.60;2.13;;;;;;;13.63;43.97;101962.66;5112904;28;20051;-82
2021/01/17 01:11:53;;;;;;;4.93;1.60;;;;;;;12.93;45.82;101968.25;5113004;28;20557;-70
2021/01/17 01:14:19;;;;;;;6.20;2.20;;;;;;;13.32;44.76;101970.66;5112963;28;20531;-81
2021/01/17 01:16:52;;;;;;;10.27;2.47;;;;;;;13.17;45.25;101981.84;5113035;28;20557;-70
2021/01/17 01:19:19;;;;;;;7.40;2.67;;;;;;;13.25;45.18;101973.78;5112676;28;20031;-81
2021/01/17 01:21:45;;;;;;;9.32;2.42;;;;;;;13.31;44.86;101972.56;5112735;28;20495;-70
2021/01/17 01:24:12;;;;;;;8.98;2.63;;;;;;;13.29;44.58;101980.28;5112913;28;20024;-71
2021/01/17 01:26:42;;;;;;;9.10;2.88;;;;;;;13.32;44.56;101984.38;5112736;28;20027;-70
2021/01/17 01:29:07;;;;;;;;;;;;;;;13.18;45.07;101978.81;5094959;28;20034;-70
2021/01/17 01:31:34;;;;;;;8.50;2.95;;;;;;;13.18;44.89;101978.81;5113004;28;20365;-70
2021/01/17 01:33:59;;;;;;;10.65;2.45;;;;;;;13.28;44.79;101977.84;5112627;28;20020;-70
2021/01/17 01:36:28;;;;;;;9.20;2.60;;;;;;;13.31;44.51;101967.09;5112636;28;20355;-80
2021/01/17 01:38:54;;;;;;;8.85;2.25;;;;;;;13.27;44.71;101971.53;5112519;28;20023;-70
2021/01/17 01:41:21;;;;;;;8.98;2.58;;;;;;;12.97;45.36;101989.28;5112853;28;20389;-70
2021/01/17 01:43:47;;;;;;;11.90;3.08;;;;;;;13.25;44.68;101976.53;5112613;28;20027;-70
2021/01/17 01:46:17;;;;;;;6.97;2.25;;;;;;;13.19;44.64;101983.19;5112474;28;20034;-80
2021/01/17 01:48:45;;;;;;;5.00;2.05;;;;;;;13.26;44.35;101985.56;5112590;28;20031;-70
2021/01/17 01:51:22;;;;;;;8.25;2.17;;;;;;;13.22;44.54;101984.53;5112557;28;20111;-70
2021/01/17 01:53:51;;;;;;;7.90;2.33;;;;;;;13.03;45.27;101996.34;5112549;28;20382;-70
2021/01/17 01:56:16;;;;;;;8.18;2.80;;;;;;;12.97;45.27;101996.72;5112419;28;20019;-80
2021/01/17 01:58:42;;;;;;;10.50;2.08;;;;;;;13.00;44.97;101991.47;5112367;28;20099;-71
2021/01/17 02:01:09;;;;;;;8.25;2.58;;;;;;;12.70;45.38;101994.66;5112420;28;20397;-70
2021/01/17 02:03:35;;;;;;;9.20;1.88;;;;;;;12.89;45.27;101995.47;5094225;28;20081;-70
2021/01/17 02:06:01;;;;;;;10.45;2.45;;;;;;;12.88;45.35;101987.53;5112798;28;20377;-70
2021/01/17 02:09:04;;;;;;;7.68;2.03;;;;;;;12.69;45.86;101991.09;5116298;28;20095;-70
2021/01/17 02:12:07;;;;;;;13.25;2.70;;;;;;;12.65;45.66;101987.31;5085814;28;20082;-79
2021/01/17 02:14:38;;;;;;;8.23;2.30;;;;;;;12.71;45.47;101979.84;5115972;28;20028;-71
2021/01/17 02:17:12;;;;;;;11.45;2.85;;;;;;;12.84;45.23;101994.72;5115883;28;20081;-71
2021/01/17 02:19:55;;;;;;;14.00;2.42;;;;;;;12.93;44.81;101993.75;5115754;28;20031;-71
2021/01/17 02:22:23;;;;;;;9.57;2.42;;;;;;;13.02;44.50;101991.97;5115988;28;20028;-71
2021/01/17 02:25:00;;;;;;;6.80;1.73;;;;;;;12.90;44.93;101999.00;5116130;28;20028;-71
2021/01/17 02:27:26;;;;;;;6.53;1.92;;;;;;;12.95;44.60;102002.50;5116060;28;20027;-70
2021/01/17 02:29:54;;;;;;;13.80;2.80;;;;;;;12.76;45.16;102010.72;5097528;28;20027;-71
2021/01/17 02:32:21;;;;;;;9.38;2.03;;;;;;;12.86;44.88;102019.94;5115930;28;20031;-70
2021/01/17 02:34:49;;;;;;;10.82;2.20;;;;;;;12.80;44.96;102010.97;5115901;28;20442;-71
2021/01/17 02:37:29;;;;;;;19.17;3.95;;;;;;;12.80;44.97;102021.13;5115463;28;20088;-70
2021/01/17 02:40:07;;;;;;;10.02;2.22;;;;;;;12.51;45.93;102013.84;5097357;28;20058;-71
2021/01/17 02:42:32;;;;;;;9.10;2.00;;;;;;;12.85;45.03;102029.28;5115778;28;20039;-70
2021/01/17 02:45:01;;;;;;;10.55;3.55;;;;;;;12.87;45.01;102027.06;5115396;28;20019;-71
2021/01/17 02:47:28;;;;;;;9.45;2.25;;;;;;;12.78;44.97;102033.22;5115338;28;20027;-81
2021/01/17 02:49:53;;;;;;;7.43;2.30;;;;;;;12.92;44.55;102035.19;5115296;28;20083;-70
2021/01/17 02:52:38;;;;;;;10.27;2.00;;;;;;;12.73;45.26;102038.75;5115294;28;20031;-81
2021/01/17 02:55:04;;;;;;;10.57;1.85;;;;;;;12.79;44.95;102031.28;5115193;28;20065;-70
2021/01/17 02:57:34;;;;;;;8.80;2.35;;;;;;;12.62;45.14;102040.03;5115045;28;20031;-71
2021/01/17 03:00:04;;;;;;;9.50;2.50;;;;;;;12.90;44.31;102038.22;5114759;28;20035;-72
2021/01/17 03:02:32;;;;;;;;;;;;;;;12.76;44.75;102054.63;5115474;28;20114;-70
2021/01/17 03:04:59;;;;;;;5.15;2.00;;;;;;;12.84;44.49;102060.53;5115087;28;19911;-76
2021/01/17 03:07:30;;;;;;;8.88;2.03;;;;;;;12.88;44.25;102061.59;5114891;28;20055;-76
2021/01/17 03:09:56;;;;;;;12.57;2.58;;;;;;;12.83;44.36;102070.69;5114712;28;20048;-71
2021/01/17 03:12:23;;;;;;;9.73;2.13;;;;;;;12.48;45.28;102077.50;5114788;28;20023;-70
2021/01/17 03:14:50;;;;;;;9.30;2.40;;;;;;;12.67;44.93;102077.50;5114681;28;20478;-70
2021/01/17 03:17:16;;;;;;;8.68;1.63;;;;;;;12.47;45.43;102084.91;5114962;28;20039;-70
2021/01/17 03:19:42;;;;;;;9.73;2.20;;;;;;;12.65;44.82;102091.53;5114613;28;20394;-71
2021/01/17 03:22:08;;;;;;;12.70;2.30;;;;;;;12.87;44.35;102092.88;5114628;28;20046;-70
2021/01/17 03:24:33;;;;;;;5.47;1.88;;;;;;;12.81;44.30;102102.28;5114559;28;20020;-80
2021/01/17 03:26:59;;;;;;;4.55;1.58;;;;;;;12.76;44.60;102094.94;5114677;28;20026;-76
2021/01/17 03:29:25;;;;;;;7.38;1.98;;;;;;;12.83;44.42;102109.09;5114510;28;20035;-70
2021/01/17 03:31:50;;;;;;;6.18;2.08;;;;;;;12.68;44.76;102101.91;5114538;28;20050;-70
2021/01/17 03:34:16;;;;;;;15.93;2.63;;;;;;;12.60;45.02;102113.50;5114409;28;20055;-81
2021/01/17 03:36:42;;;;;;;9.73;2.20;;;;;;;12.72;44.73;102096.66;5114378;28;20027;-77
2021/01/17 03:39:07;;;;;;;6.85;2.15;;;;;;;12.78;44.53;102101.78;5114320;28;20381;-70
2021/01/17 03:41:33;;;;;;;12.73;3.25;;;;;;;12.72;44.64;102102.94;5114293;28;20103;-70
2021/01/17 03:43:59;;;;;;;5.38;2.45;;;;;;;12.64;44.79;102117.31;5114186;28;20026;-70
2021/01/17 03:46:27;;;;;;;10.05;2.53;;;;;;;12.77;44.33;102113.03;5114203;28;20047;-70
2021/01/17 03:48:53;;;;;;;8.18;2.17;;;;;;;12.73;44.64;102121.03;5114215;28;20050;-70
2021/01/17 03:51:19;;;;;;;9.55;2.80;;;;;;;12.87;44.16;102132.09;5114114;28;20020;-71
2021/01/17 03:53:44;;;;;;;15.27;3.35;;;;;;;12.84;44.27;102135.41;5114065;28;20034;-70
2021/01/17 03:56:10;;;;;;;13.13;2.55;;;;;;;13.04;43.79;102137.09;5114002;28;20031;-70
2021/01/17 03:58:35;;;;;;;12.40;2.28;;;;;;;12.85;44.21;102144.50;5113951;28;20035;-70
2021/01/17 04:01:01;;;;;;;6.50;1.83;;;;;;;12.95;43.88;102152.59;5113879;28;20024;-70
2021/01/17 04:03:27;;;;;;;8.30;2.78;;;;;;;12.92;44.02;102155.91;5113881;28;20672;-71
2021/01/17 04:05:53;;;;;;;13.65;2.30;;;;;;;12.73;44.40;102147.66;5113881;28;20111;-70
2021/01/17 04:08:18;;;;;;;8.13;2.90;;;;;;;12.89;44.09;102146.34;5113843;28;20027;-70
2021/01/17 04:10:44;;;;;;;12.32;2.40;;;;;;;12.90;44.06;102147.97;5113538;28;20100;-71
2021/01/17 04:13:10;;;;;;;6.55;2.83;;;;;;;12.70;44.59;102143.56;5113950;28;20024;-70
2021/01/17 04:15:35;;;;;;;18.70;3.20;;;;;;;12.79;44.31;102135.50;5113682;28;20116;-71
2021/01/17 04:18:01;;;;;;;7.55;1.92;;;;;;;12.74;44.49;102141.88;5113697;28;20068;-71
2021/01/17 04:20:26;;;;;;;11.73;2.57;;;;;;;12.77;44.52;102141.28;5113759;28;20035;-70
2021/01/17 04:22:52;;;;;;;11.02;2.40;;;;;;;12.67;44.70;102138.66;5113446;28;20389;-70
2021/01/17 04:25:19;;;;;;;11.73;3.97;;;;;;;12.60;44.81;102137.38;5113346;28;20091;-70
2021/01/17 04:27:45;;;;;;;11.85;2.72;;;;;;;12.57;44.98;102146.19;5113380;28;20023;-70
2021/01/17 04:30:10;;;;;;;12.35;3.35;;;;;;;12.75;44.50;102154.47;5112833;28;20039;-76
2021/01/17 04:32:39;;;;;;;14.00;2.50;;;;;;;12.58;44.86;102151.38;5108761;28;20076;-71
2021/01/17 04:35:05;;;;;;;11.70;2.45;;;;;;;12.68;44.71;102150.44;5112051;28;20041;-70
2021/01/17 04:37:31;;;;;;;11.57;2.75;;;;;;;12.73;44.61;102156.69;5113260;28;20016;-70
2021/01/17 04:39:57;;;;;;;12.70;2.88;;;;;;;12.67;44.66;102170.75;5113273;28;20040;-70
2021/01/17 04:42:23;;;;;;;9.50;3.28;;;;;;;12.64;44.61;102166.69;5113506;28;20049;-78
2021/01/17 04:44:51;;;;;;;11.75;2.53;;;;;;;12.63;44.65;102167.78;5113293;28;20629;-71
2021/01/17 04:47:21;;;;;;;9.40;2.63;;;;;;;12.67;44.42;102168.81;5095283;28;20036;-80
2021/01/17 04:49:52;;;;;;;15.38;3.20;;;;;;;12.69;44.53;102182.22;5113106;28;20031;-80
2021/01/17 04:52:21;;;;;;;10.45;2.20;;;;;;;12.74;44.20;102183.00;5113251;28;20027;-74
2021/01/17 04:54:47;;;;;;;14.75;3.53;;;;;;;12.68;44.53;102178.69;5113158;28;20362;-70
2021/01/17 04:57:19;;;;;;;9.43;3.17;;;;;;;12.75;44.02;102183.81;5094747;28;20031;-70
2021/01/17 05:00:05;;;;;;;10.82;2.72;;;;;;;12.63;44.31;102192.47;5112935;28;20069;-79
2021/01/17 05:02:33;;;;;;;15.32;2.58;;;;;;;12.87;43.94;102186.16;5113012;28;20027;-81
2021/01/17 05:05:24;;;;;;;10.10;2.60;;;;;;;12.72;44.07;102185.22;5112943;28;20042;-70
2021/01/17 05:08:11;;;;;;;14.18;2.72;;;;;;;12.65;44.15;102183.94;5112955;28;20042;-70
2021/01/17 05:10:39;;;;;;;8.52;2.28;;;;;;;12.60;44.41;102184.81;5112739;28;20071;-74
2021/01/17 05:13:12;;;;;;;42.35;5.22;;;;;;;12.55;44.54;102186.81;5112865;28;20469;-70
2021/01/17 05:15:43;;;;;;;6.82;2.55;;;;;;;12.42;44.68;102189.13;5112839;28;20077;-70
2021/01/17 05:18:09;;;;;;;8.00;2.63;;;;;;;12.53;44.46;102195.31;5112960;28;20035;-72
2021/01/17 05:20:35;;;;;;;12.60;3.20;;;;;;;12.48;44.65;102198.13;5094564;28;20031;-71
2021/01/17 05:23:07;;;;;;;13.55;3.67;;;;;;;12.55;44.52;102203.25;5094552;28;20058;-81
2021/01/17 05:25:33;;;;;;;14.82;4.32;;;;;;;12.36;45.09;102198.50;5094664;28;20435;-80
2021/01/17 05:27:58;;;;;;;8.35;2.20;;;;;;;12.44;44.92;102195.13;5112888;28;20024;-71
2021/01/17 05:30:24;;;;;;;13.77;2.65;;;;;;;12.44;44.96;102200.59;5094500;28;20028;-70
2021/01/17 05:32:52;;;;;;;8.93;2.58;;;;;;;12.49;44.67;102195.09;5112665;28;20110;-70
2021/01/17 05:35:20;;;;;;;14.48;2.78;;;;;;;12.54;44.55;102207.91;5112714;28;20023;-70
2021/01/17 05:37:51;;;;;;;10.80;2.38;;;;;;;12.55;44.47;102206.81;5112587;28;20058;-70
2021/01/17 05:40:17;;;;;;;11.43;2.97;;;;;;;12.59;44.38;102204.31;5112582;28;20111;-71
2021/01/17 05:42:44;;;;;;;9.02;2.63;;;;;;;12.58;44.40;102206.22;5115871;28;20426;-70
2021/01/17 05:45:12;;;;;;;12.97;3.30;;;;;;;12.55;44.47;102211.50;5116455;28;20020;-71
2021/01/17 05:47:39;;;;;;;11.70;3.38;;;;;;;12.56;44.56;102208.44;5116518;28;20107;-71
2021/01/17 05:50:10;;;;;;;13.07;2.65;;;;;;;12.60;44.21;102203.19;5116536;28;20028;-70
2021/01/17 05:52:36;;;;;;;9.73;3.25;;;;;;;12.44;44.49;102205.28;5116457;28;20385;-71
2021/01/17 05:55:03;;;;;;;12.70;3.03;;;;;;;12.50;44.54;102209.59;5116318;28;20066;-70
2021/01/17 05:57:31;;;;;;;9.93;2.83;;;;;;;12.52;44.38;102215.59;5098344;28;20024;-70
2021/01/17 05:59:59;;;;;;;11.23;2.88;;;;;;;12.54;44.35;102215.31;5116131;28;20027;-70
2021/01/17 06:02:25;;;;;;;10.48;3.28;;;;;;;12.41;44.65;102219.56;5116355;28;20028;-76
2021/01/17 06:05:01;;;;;;;12.82;2.70;;;;;;;12.21;45.04;102221.38;5116237;28;20423;-70
2021/01/17 06:07:29;;;;;;;12.00;3.38;;;;;;;12.24;45.01;102214.50;5097847;28;20039;-70
2021/01/17 06:10:06;;;;;;;13.35;2.40;;;;;;;11.96;46.05;102221.63;5115666;28;20040;-70
2021/01/17 06:12:39;;;;;;;12.65;3.22;;;;;;;12.01;45.99;102218.81;5116064;28;20038;-70
2021/01/17 06:15:09;;;;;;;11.18;3.10;;;;;;;11.84;46.14;102218.41;5115979;28;20027;-69
2021/01/17 06:17:38;;;;;;;;;;;;;;;11.99;45.70;102223.78;5116304;28;20035;-69
2021/01/17 06:20:08;;;;;;;10.32;2.58;;;;;;;12.00;45.64;102224.59;5097253;28;19916;-70
2021/01/17 06:22:35;;;;;;;19.58;5.47;;;;;;;11.73;46.54;102236.81;5115863;28;20032;-69
2021/01/17 06:25:06;;;;;;;21.25;4.60;;;;;;;11.99;45.68;102237.47;5115742;28;20020;-69
2021/01/17 06:27:32;;;;;;;13.57;2.47;;;;;;;12.04;45.56;102240.19;5091250;28;20085;-69
2021/01/17 06:29:58;;;;;;;12.15;2.75;;;;;;;11.99;45.82;102240.22;5115690;28;20030;-69
2021/01/17 06:32:29;;;;;;;14.38;4.00;;;;;;;12.13;45.53;102254.06;5115669;28;20482;-79
2021/01/17 06:34:57;;;;;;;14.05;3.65;;;;;;;11.74;46.74;102246.66;5115639;28;20103;-69
2021/01/17 06:37:30;;;;;;;14.30;2.38;;;;;;;11.97;46.12;102244.34;5115607;28;20027;-69
2021/01/17 06:39:57;;;;;;;21.87;4.17;;;;;;;12.05;45.82;102268.38;5115444;28;20024;-70
2021/01/17 06:42:25;;;;;;;12.50;2.27;;;;;;;12.10;45.49;102260.97;5115291;28;20023;-70
2021/01/17 06:44:51;;;;;;;12.38;3.03;;;;;;;12.08;45.77;102249.44;5115499;28;20535;-71
2021/01/17 06:47:20;;;;;;;11.53;3.60;;;;;;;12.09;45.67;102262.06;5115388;28;20028;-70
2021/01/17 06:49:47;;;;;;;15.43;3.07;;;;;;;11.98;46.17;102268.72;5115405;28;20046;-70
2021/01/17 06:52:14;;;;;;;8.40;2.43;;;;;;;11.97;46.14;102278.03;5114615;28;20477;-71
2021/01/17 06:54:50;;;;;;;14.50;3.15;;;;;;;11.95;46.00;102280.25;5115299;28;20020;-71
2021/01/17 06:57:16;;;;;;;7.67;2.60;;;;;;;11.87;46.45;102289.06;5115250;28;20469;-70
2021/01/17 06:59:49;;;;;;;13.80;3.23;;;;;;;12.16;45.93;102276.22;5114991;28;20469;-75
2021/01/17 07:02:18;;;;;;;8.53;3.23;;;;;;;11.82;46.40;102286.34;5096811;28;20118;-71
2021/01/17 07:04:52;;;;;;;15.10;2.85;;;;;;;11.98;45.84;102276.94;5115075;28;20026;-72
2021/01/17 07:07:39;;;;;;;11.38;2.95;;;;;;;11.89;46.16;102284.13;5115054;28;20042;-70
2021/01/17 07:10:06;;;;;;;17.00;3.22;;;;;;;11.95;45.88;102293.94;5114833;28;20135;-70
2021/01/17 07:12:41;;;;;;;11.33;2.70;;;;;;;11.86;46.20;102293.72;5114862;28;20035;-70
2021/01/17 07:15:11;;;;;;;13.03;2.70;;;;;;;11.91;45.91;102301.91;5114870;28;20673;-70
2021/01/17 07:17:39;;;;;;;15.05;3.25;;;;;;;11.94;45.80;102297.78;5097127;28;20445;-70
2021/01/17 07:20:13;;;;;;;13.20;2.80;;;;;;;11.82;46.25;102302.78;5114644;28;20040;-71
2021/01/17 07:22:42;;;;;;;14.40;4.60;;;;;;;11.93;45.83;102298.88;5096592;28;20032;-81
2021/01/17 07:25:10;;;;;;;12.90;3.22;;;;;;;11.74;46.34;102304.16;5096993;28;20035;-70
2021/01/17 07:27:57;;;;;;;18.43;3.80;;;;;;;11.83;46.01;102309.91;5114532;28;20533;-71
2021/01/17 07:31:00;;;;;;;22.20;3.17;;;;;;;11.76;46.14;102314.84;5096458;28;20031;-70
2021/01/17 07:33:38;;;;;;;17.27;3.90;;;;;;;11.85;45.92;102313.97;5114545;28;20024;-74
2021/01/17 07:36:10;;;;;;;13.07;3.27;;;;;;;11.91;45.65;102312.03;5114544;28;20111;-70
2021/01/17 07:38:46;;;;;;;12.38;3.28;;;;;;;11.97;45.60;102313.66;5096082;28;20542;-69
2021/01/17 07:41:14;;;;;;;9.33;2.57;;;;;;;11.75;46.50;102316.75;5097022;28;20051;-74
2021/01/17 07:43:44;;;;;;;13.50;2.97;;;;;;;11.98;45.76;102318.03;5096104;28;20480;-69
2021/01/17 07:46:15;;;;;;;20.50;3.13;;;;;;;11.81;46.35;102325.81;5114254;28;20024;-69
2021/01/17 07:48:42;;;;;;;14.00;3.15;;;;;;;11.97;46.04;102332.81;5114256;28;20034;-70
2021/01/17 07:51:10;;;;;;;12.80;2.60;;;;;;;11.98;45.94;102326.25;5114209;28;20055;-69
2021/01/17 07:53:39;;;;;;;18.60;3.03;;;;;;;11.98;46.12;102330.91;5114126;28;20027;-69
2021/01/17 07:56:24;;;;;;;15.18;2.92;;;;;;;11.89;46.09;102341.63;5114080;28;20031;-69
2021/01/17 07:58:52;;;;;;;16.97;3.90;;;;;;;11.95;46.31;102351.47;5095581;28;20023;-70
2021/01/17 08:01:36;;;;;;;14.55;3.20;;;;;;;12.02;46.07;102371.16;5094196;28;20038;-80
2021/01/17 08:04:01;;;;;;;14.60;3.40;;;;;;;11.89;46.60;102364.38;5095007;28;20039;-81
2021/01/17 08:06:36;;;;;;;15.27;2.72;;;;;;;11.92;46.53;102373.94;5113877;28;20390;-80
2021/01/17 08:09:08;;;;;;;10.85;2.60;;;;;;;12.04;46.14;102382.63;5113649;28;20081;-77
2021/01/17 08:11:41;;;;;;;14.95;3.00;;;;;;;12.14;45.91;102387.22;5113844;28;20046;-71
2021/01/17 08:14:26;;;;;;;13.00;3.80;;;;;;;12.09;46.06;102395.47;5113679;28;20428;-77
2021/01/17 08:17:10;;;;;;;9.90;2.37;;;;;;;12.09;46.15;102388.09;5095729;28;20036;-71
2021/01/17 08:20:00;;;;;;;16.53;3.37;;;;;;;12.20;45.83;102394.31;5113452;28;20055;-71
2021/01/17 08:22:25;;;;;;;15.63;3.60;;;;;;;12.37;45.38;102391.19;5113634;28;20028;-70
2021/01/17 08:24:58;;;;;;;13.70;2.80;;;;;;;12.06;46.34;102396.06;5113577;28;20015;-70
2021/01/17 08:27:42;;;;;;;8.50;3.15;;;;;;;11.96;46.30;102391.47;5113509;28;20023;-70
2021/01/17 08:30:17;;;;;;;14.13;4.05;;;;;;;12.14;46.32;102400.94;5113473;28;20378;-71
2021/01/17 08:33:11;;;;;;;13.23;3.73;;;;;;;12.03;46.49;102402.94;5113445;28;20032;-70
2021/01/17 08:35:37;;;;;;;15.32;2.70;;;;;;;12.08;46.26;102405.63;5110666;28;20035;-70
2021/01/17 08:38:08;;;;;;;16.77;4.20;;;;;;;12.18;46.21;102405.56;5113246;28;20022;-70
2021/01/17 08:40:34;;;;;;;11.82;3.42;;;;;;;12.23;46.17;102408.28;5113112;28;20041;-70
2021/01/17 08:43:02;;;;;;;14.98;3.47;;;;;;;12.35;45.62;102409.84;5094879;28;20027;-70
2021/01/17 08:45:27;;;;;;;11.93;2.70;;;;;;;12.31;45.77;102406.03;5113118;28;20028;-70
2021/01/17 08:47:54;;;;;;;14.15;4.65;;;;;;;12.40;45.73;102416.13;5113146;28;20152;-81
2021/01/17 08:50:29;;;;;;;13.55;2.70;;;;;;;12.43;45.34;102412.81;5113112;28;20097;-70
2021/01/17 08:53:15;;;;;;;9.43;2.93;;;;;;;12.37;45.68;102421.34;5094941;28;20034;-70
2021/01/17 08:55:43;;;;;;;13.40;3.00;;;;;;;12.24;46.05;102422.78;5112794;28;20036;-92
2021/01/17 08:58:10;;;;;;;7.25;2.83;;;;;;;12.41;45.62;102415.03;5094581;28;20034;-70
2021/01/17 09:00:48;;;;;;;8.45;2.17;;;;;;;12.50;45.34;102424.28;5112979;28;20080;-71
2021/01/17 09:03:33;;;;;;;12.57;4.03;;;;;;;12.46;45.46;102433.34;5095044;28;20036;-70
2021/01/17 09:06:03;;;;;;;12.73;3.47;;;;;;;12.62;44.95;102432.16;5113371;28;20374;-82
2021/01/17 09:08:30;;;;;;;16.47;3.30;;;;;;;12.61;45.11;102429.69;5113306;28;20031;-85
2021/01/17 09:10:56;;;;;;;6.30;2.22;;;;;;;12.64;45.23;102438.16;5094576;28;20401;-71
2021/01/17 09:13:28;;;;;;;15.38;4.68;;;;;;;12.63;45.22;102438.47;5113106;28;20053;-84
2021/01/17 09:16:02;;;;;;;13.77;4.28;;;;;;;12.70;44.88;102441.69;5114835;28;20027;-76
2021/01/17 09:18:30;;;;;;;14.05;3.20;;;;;;;12.48;45.71;102447.59;5116976;28;20024;-70
2021/01/17 09:20:56;;;;;;;11.07;2.70;;;;;;;12.65;45.48;102442.53;5116984;28;20076;-72
2021/01/17 09:23:24;;;;;;;19.33;6.23;;;;;;;12.73;45.16;102439.19;5116927;28;20024;-69
2021/01/17 09:26:00;;;;;;;12.38;3.15;;;;;;;12.36;46.15;102439.72;5116971;28;20096;-70
2021/01/17 09:28:29;;;;;;;18.38;8.90;;;;;;;12.62;45.55;102443.13;5116889;28;20547;-70
2021/01/17 09:30:57;;;;;;;14.63;3.27;;;;;;;12.76;45.34;102438.59;5116893;28;20036;-70
2021/01/17 09:33:23;;;;;;;9.43;3.03;;;;;;;12.78;45.58;102441.09;5098750;28;20054;-67
2021/01/17 09:35:50;;;;;;;13.60;2.60;;;;;;;12.87;45.09;102449.50;5116928;28;20453;-69
2021/01/17 09:38:21;;;;;;;12.35;4.22;;;;;;;12.61;45.77;102446.94;5116870;28;20023;-70
2021/01/17 09:40:50;;;;;;;17.42;3.88;;;;;;;12.81;45.04;102445.97;5116844;28;20023;-85
2021/01/17 09:43:16;;;;;;;13.57;3.10;;;;;;;12.87;45.28;102455.00;5116899;28;20084;-78
2021/01/17 09:45:49;;;;;;;14.82;4.25;;;;;;;12.73;45.46;102450.16;5118218;27;20470;-75
2021/01/17 09:48:19;;;;;;;20.10;6.03;;;;;;;12.88;45.34;102453.91;5094476;28;20435;-72
2021/01/17 09:50:44;;;;;;;;;;;;;;;12.97;44.93;102449.41;5111061;28;20023;-71
2021/01/17 09:53:10;;;;;;;8.63;4.07;;;;;;;12.94;45.16;102447.25;5100683;28;20347;-70
2021/01/17 09:55:40;;;;;;;12.60;2.70;;;;;;;12.94;45.02;102456.31;5083905;28;20030;-70
2021/01/17 09:58:10;;;;;;;10.40;2.90;;;;;;;12.73;45.37;102454.81;5099869;28;20541;-70
2021/01/17 10:00:37;;;;;;;12.88;3.80;;;;;;;13.05;44.54;102459.78;5100295;28;20555;-73
2021/01/17 10:03:27;;;;;;;9.68;2.63;;;;;;;12.31;46.27;102458.09;5089571;27;20494;-76
2021/01/17 10:05:52;;;;;;;12.02;4.05;;;;;;;12.75;45.46;102461.66;5087868;27;20032;-86
2021/01/17 10:08:18;;;;;;;11.00;2.95;;;;;;;12.70;45.54;102469.13;5087928;27;20158;-70
2021/01/17 10:10:47;;;;;;;9.68;2.70;;;;;;;12.81;45.17;102467.94;5084784;28;20125;-78
2021/01/17 10:13:13;;;;;;;10.77;2.65;;;;;;;12.71;45.54;102468.00;5096959;28;20032;-71
2021/01/17 10:15:40;;;;;;;12.35;3.70;;;;;;;12.34;45.60;102471.28;5101183;28;20035;-85
2021/01/17 10:18:07;;;;;;;14.35;4.78;;;;;;;12.60;45.78;102474.66;5097850;28;20020;-89
2021/01/17 10:20:37;;;;;;;14.13;8.68;;;;;;;12.50;45.99;102473.63;5098085;28;20020;-72
2021/01/17 10:23:09;;;;;;;;;;;;;;;12.59;45.62;102482.06;5100784;28;20123;-70
2021/01/17 10:25:36;;;;;;;26.05;10.48;;;;;;;12.71;45.53;102479.00;5097740;28;20010;-86
2021/01/17 10:28:06;;;;;;;21.93;8.43;;;;;;;12.70;45.33;102478.16;5096905;28;20474;-70
2021/01/17 10:30:34;;;;;;;15.98;6.43;;;;;;;12.76;45.59;102482.50;5089539;27;20031;-84
2021/01/17 10:33:02;;;;;;;13.60;5.00;;;;;;;13.03;44.59;102495.75;5080536;27;20050;-70
2021/01/17 10:35:31;;;;;;;21.98;5.00;;;;;;;13.22;44.34;102492.31;5082428;28;20043;-70
2021/01/17 10:37:57;;;;;;;15.02;4.28;;;;;;;13.11;44.61;102486.06;5090049;28;20062;-68
2021/01/17 10:40:29;;;;;;;25.55;10.90;;;;;;;13.25;44.53;102481.59;5099329;28;20106;-70
2021/01/17 10:42:59;;;;;;;16.98;5.38;;;;;;;13.36;44.18;102484.22;5099120;28;20681;-69
2021/01/17 10:45:26;;;;;;;18.33;6.63;;;;;;;13.35;44.38;102471.63;5098453;28;20024;-69
2021/01/17 10:48:11;;;;;;;12.77;3.90;;;;;;;12.91;45.50;102472.50;5098310;28;20023;-68
2021/01/17 10:50:56;;;;;;;10.23;3.80;;;;;;;13.35;44.71;102480.66;5097513;28;20779;-68
2021/01/17 10:53:39;;;;;;;9.32;2.28;;;;;;;13.11;45.11;102471.53;5098057;28;20034;-69
2021/01/17 10:56:09;;;;;;;13.77;3.47;;;;;;;13.26;44.98;102472.25;5097821;28;20081;-74
2021/01/17 10:58:43;;;;;;;16.55;3.92;;;;;;;13.14;45.41;102473.69;5098229;28;20480;-67
2021/01/17 11:01:08;;;;;;;14.35;2.88;;;;;;;13.23;45.19;102472.84;5079483;28;20397;-68
2021/01/17 11:03:37;;;;;;;9.13;3.13;;;;;;;13.27;45.16;102482.09;5097691;28;20028;-68
2021/01/17 11:06:12;;;;;;;6.97;3.30;;;;;;;12.92;46.10;102474.16;5098491;28;20373;-68
2021/01/17 11:08:46;;;;;;;11.48;3.50;;;;;;;13.05;45.81;102471.56;5095032;28;20031;-82
2021/01/17 11:11:13;;;;;;;14.50;3.30;;;;;;;13.13;45.63;102467.38;5098397;28;20501;-67
2021/01/17 11:13:39;;;;;;;17.00;3.08;;;;;;;13.40;44.91;102469.63;5097987;28;20092;-84
2021/01/17 11:16:06;;;;;;;12.82;3.97;;;;;;;13.18;45.81;102477.50;5098099;28;20036;-68
2021/01/17 11:18:31;;;;;;;13.77;3.58;;;;;;;13.38;45.23;102479.28;5097613;28;20110;-67
2021/01/17 11:21:01;;;;;;;12.80;4.05;;;;;;;13.52;44.91;102467.31;5098336;28;20106;-67
2021/01/17 11:23:28;;;;;;;15.48;3.95;;;;;;;13.56;44.78;102468.38;5096179;28;20024;-67
2021/01/17 11:26:06;;;;;;;16.63;2.97;;;;;;;12.57;47.13;102469.75;5078571;28;20036;-78
2021/01/17 11:28:33;;;;;;;21.48;3.55;;;;;;;13.33;45.50;102469.16;5097806;28;20503;-69
2021/01/17 11:31:15;;;;;;;20.73;5.97;;;;;;;13.52;45.10;102467.31;5097618;28;20028;-68
2021/01/17 11:33:41;;;;;;;12.45;3.67;;;;;;;13.51;45.26;102475.84;5076895;28;20043;-68